首页
METAR-TAF:

METAR-TAF

机场 :

台拉登, 印度

纬度: 30-11-23N, 经度: 78-10-49E, 海拔: 558米

当前天气观测

该预报发布于18分钟前的00:30 UTC
风速3节,风向北转东北
温度 28°C
湿度 51%
气压 1002 hPa
能見度: 4000
霾,

METAR: VIDN 170030Z 03003KT 4000 HZ NSC 28/17 Q1002 NOSIG

时间: 06:18 (00:48 UTC)

预报

该预报发布于1小时和48分钟前的23:00 UTC
预报有效从17日的 00点(UTC)到 17日的 09点(UTC)
风速4节,风向东北
能見度: 3000
成为
从 17日的 07点(UTC)到 17日的 09点(UTC)
风速8节,风向西转西南,有时为18节阵风
能見度: 5000
少量云层高于3000英尺
霾,

TAF: VIDN 162300Z 1700/1709 05004KT 3000 HZ NSC BECMG 1707/1709 25008G18KT 5000 HZ FEW030

超过4000个机场的气象观测和天气预报(METAR&TAF报告)。

可查询的气象台以黄色和红色小点在地图上表示。

将鼠标移到小点上方,可查看气象台名称。

然后点击查看天气观测和预报。

如需切换地图:点击带黑十字的绿色按钮放大地图;点击带横线的绿色按钮缩小地图;或者点击绿色箭头查看邻近地区的地图。


METAR-TAF: